Latest Weather Observations for Canterbury

IDN60801

Issued at 10:42 pm EST Sunday 21 July 2019 (issued every 10 minutes, with the page automatically refreshed every 10 minutes)

About weather observations | Map of weather stations | Latest weather observations for NSW | Other Formats
Station Details ID: 066194 Name: CANTERBURY RACECOURSE AWS Lat: -33.91 Lon: 151.11 Height: 3.0 m
Data from the previous 72 hours. | See also: Recent months at Canterbury
Date/Time
EST
Temp
°C
App
Temp
°C
Dew
Point
°C
Rel
Hum
%
Delta-T
°C
Wind Press
QNH
hPa
Press
MSL
hPa
Rain since
9am
mm
Dir  Spd
km/h
Gust
km/h
Spd
kts
Gust
kts
21/10:30pm 7.1 5.7 3.3 77 1.6 CALM 0 0 0 0 - - 0.0
21/10:00pm 7.8 6.4 3.7 75 1.8 CALM 0 0 0 0 - - 0.0
21/09:30pm 7.5 6.0 3.0 73 1.9 CALM 0 0 0 0 - - 0.0
21/09:00pm 8.4 7.1 4.0 74 1.9 CALM 0 0 0 0 - - 0.0
21/08:30pm 8.4 6.8 2.6 67 2.4 CALM 0 0 0 0 - - 0.0
21/08:00pm 9.0 7.8 4.6 74 1.9 CALM 0 0 0 0 - - 0.0
21/07:30pm 10.1 8.9 4.5 68 2.5 CALM 0 0 0 0 - - 0.0
21/07:00pm 11.3 9.8 3.1 57 3.6 CALM 0 0 0 0 - - 0.0
21/06:30pm 11.9 9.3 4.4 60 3.4 N 7 9 4 5 - - 0.0
21/06:00pm 13.4 10.5 1.7 45 5.0 N 6 9 3 5 - - 0.0
21/05:30pm 16.0 13.7 0.2 34 6.8 NNW 2 7 1 4 - - 0.0
21/05:00pm 20.4 16.6 -0.8 24 9.2 NW 9 13 5 7 - - 0.0
21/04:30pm 22.2 17.7 -0.5 22 10.1 WNW 13 20 7 11 - - 0.0
21/04:00pm 22.8 18.8 0.6 23 10.1 WSW 11 19 6 10 - - 0.0
21/03:30pm 23.1 18.7 0.2 22 10.4 WSW 13 20 7 11 - - 0.0
21/03:00pm 23.2 18.8 0.3 22 10.4 WSW 13 22 7 12 - - 0.0
21/02:30pm 22.9 19.8 1.3 24 10.0 WSW 7 15 4 8 - - 0.0
21/02:00pm 22.6 18.4 1.6 25 9.8 W 13 22 7 12 - - 0.0
21/01:30pm 22.1 18.8 2.2 27 9.3 SW 9 17 5 9 - - 0.0
21/01:00pm 22.0 18.7 2.2 27 9.3 NW 9 15 5 8 - - 0.0
21/12:30pm 21.2 18.8 2.0 28 8.9 WSW 4 9 2 5 - - 0.0
21/12:00pm 20.6 18.6 2.4 30 8.5 WNW 2 11 1 6 - - 0.0
21/11:30am 19.4 17.2 3.2 34 7.6 SW 4 11 2 6 - - 0.0
21/11:00am 20.3 18.1 3.5 33 8.0 WNW 4 7 2 4 - - 0.0
21/10:30am 18.9 16.1 3.1 35 7.4 NNW 7 13 4 7 - - 0.0
21/10:00am 15.9 14.4 4.9 48 5.2 WSW 2 9 1 5 - - 0.0
21/09:30am 12.5 11.5 5.7 63 3.2 CALM 0 0 0 0 - - 0.0
21/09:00am 10.4 8.9 5.2 70 2.4 NW 2 6 1 3 - - 0.0
21/08:30am 7.2 6.5 6.8 97 0.2 CALM 0 0 0 0 - - 0.0
21/08:00am 4.8 3.6 4.7 99 0.0 CALM 0 0 0 0 - - 0.0
21/07:35am 3.3 1.8 3.2 99 0.0 CALM 0 0 0 0 - - 0.0
21/07:30am 2.9 1.4 2.8 99 0.0 CALM 0 0 0 0 - - 0.0
21/07:21am 2.4 0.8 2.3 99 0.0 CALM 0 0 0 0 - - 0.0
21/07:00am 2.5 0.9 2.2 98 0.1 CALM 0 0 0 0 - - 0.0
21/06:30am 2.6 1.0 2.5 99 0.0 CALM 0 0 0 0 - - 0.0
21/06:00am 2.9 1.0 2.8 99 0.0 NNW 2 7 1 4 - - 0.0
21/05:57am 3.0 1.5 2.9 99 0.0 CALM 0 2 0 1 - - 0.0
21/05:36am 3.1 1.5 2.7 97 0.2 CALM 0 0 0 0 - - 0.0
21/05:30am 3.0 1.4 2.6 97 0.2 CALM 0 0 0 0 - - 0.0
21/05:00am 4.4 2.0 4.3 99 0.0 NNW 6 9 3 5 - - 0.0
21/04:30am 3.5 2.1 3.4 99 0.0 CALM 0 0 0 0 - - 0.0
21/04:00am 3.8 2.0 3.5 98 0.1 N 2 6 1 3 - - 0.0
21/03:30am 3.8 2.0 3.5 98 0.1 N 2 7 1 4 - - 0.0
21/03:00am 4.1 2.7 3.8 98 0.1 CALM 0 0 0 0 - - 0.0
21/02:30am 3.3 1.4 2.7 96 0.2 NW 2 7 1 4 - - 0.0
21/02:00am 4.3 3.0 3.9 97 0.2 CALM 0 2 0 1 - - 0.0
21/01:30am 4.6 3.3 4.0 96 0.3 CALM 0 0 0 0 - - 0.0
21/01:00am 4.6 3.3 3.9 95 0.3 CALM 0 0 0 0 - - 0.0
21/12:30am 5.2 4.0 4.5 95 0.3 CALM 0 0 0 0 - - 0.0
21/12:00am 5.5 4.3 4.8 95 0.3 CALM 0 0 0 0 - - 0.0
 
Date/Time
EST
Temp
°C
App
Temp
°C
Dew
Point
°C
Rel
Hum
%
Delta-T
°C
Wind Press
QNH
hPa
Press
MSL
hPa
Rain since
9am
mm
Dir  Spd
km/h
Gust
km/h
Spd
kts
Gust
kts
20/11:30pm 5.9 4.8 5.2 95 0.3 CALM 0 0 0 0 - - 0.0
20/11:00pm 6.2 5.1 5.2 93 0.4 CALM 0 0 0 0 - - 0.0
20/10:30pm 6.4 5.2 4.6 88 0.8 CALM 0 0 0 0 - - 0.0
20/10:00pm 7.3 6.3 5.6 89 0.8 CALM 0 0 0 0 - - 0.0
20/09:30pm 7.5 6.4 5.1 85 1.1 CALM 0 0 0 0 - - 0.0
20/09:00pm 8.5 7.4 4.9 78 1.6 CALM 0 0 0 0 - - 0.0
20/08:30pm 10.7 9.3 5.5 70 2.4 WNW 2 6 1 3 - - 0.0
20/08:00pm 13.3 11.0 5.5 59 3.7 N 7 11 4 6 - - 0.0
20/07:30pm 14.0 11.4 5.9 58 3.8 NNE 9 15 5 8 - - 0.0
20/07:00pm 14.4 11.6 7.0 61 3.6 NNE 11 15 6 8 - - 0.0
20/06:30pm 14.4 12.2 7.9 65 3.2 NNE 9 17 5 9 - - 0.0
20/06:00pm 13.7 12.2 7.0 64 3.3 ENE 4 7 2 4 - - 0.0
20/05:30pm 15.4 13.7 7.4 59 4.0 NE 6 11 3 6 - - 0.0
20/05:00pm 16.5 14.5 6.9 53 4.7 NE 7 13 4 7 - - 0.0
20/04:30pm 18.3 15.8 6.5 46 5.9 NE 9 13 5 7 - - 0.0
20/04:00pm 19.3 15.4 3.5 35 7.4 N 13 19 7 10 - - 0.0
20/03:30pm 19.7 16.2 3.4 34 7.7 N 11 20 6 11 - - 0.0
20/03:00pm 19.8 16.1 4.3 36 7.4 N 13 22 7 12 - - 0.0
20/02:30pm 19.6 15.8 3.7 35 7.5 N 13 20 7 11 - - 0.0
20/02:00pm 19.5 15.3 4.0 36 7.4 NNE 15 20 8 11 - - 0.0
20/01:30pm 19.0 14.3 3.2 35 7.4 NNW 17 28 9 15 - - 0.0
20/01:00pm 19.0 15.0 4.7 39 6.9 N 15 26 8 14 - - 0.0
20/12:30pm 18.5 16.0 6.7 46 5.9 N 9 20 5 11 - - 0.0
20/12:00pm 16.7 13.5 5.3 47 5.5 NW 11 17 6 9 - - 0.0
20/11:30am 15.6 12.8 5.2 50 4.9 NNW 9 17 5 9 - - 0.0
20/11:00am 14.6 11.5 5.4 54 4.3 NNW 11 17 6 9 - - 0.0
20/10:30am 13.0 10.1 4.9 58 3.7 W 9 17 5 9 - - 0.0
20/10:00am 12.1 9.3 5.0 62 3.3 WNW 9 15 5 8 - - 0.0
20/09:30am 10.8 7.6 5.1 68 2.6 WNW 11 15 6 8 - - 0.0
20/09:00am 9.6 6.4 5.0 73 2.1 WNW 11 19 6 10 - - 0.0
20/08:30am 8.2 5.5 5.5 83 1.2 NW 9 15 5 8 - - 0.0
20/08:00am 5.8 4.1 5.7 99 0.0 WNW 4 7 2 4 - - 0.0
20/07:30am 3.2 1.7 3.1 99 0.0 CALM 0 0 0 0 - - 0.0
20/07:14am 2.7 1.1 2.6 99 0.0 CALM 0 0 0 0 - - 0.0
20/07:00am 2.7 1.1 2.6 99 0.0 CALM 0 0 0 0 - - 0.0
20/06:55am 2.6 1.0 2.5 99 0.0 CALM 0 0 0 0 - - 0.0
20/06:30am 2.4 0.8 2.3 99 0.0 CALM 0 0 0 0 - - 0.0
20/06:00am 3.1 1.6 3.0 99 0.0 CALM 0 0 0 0 - - 0.0
20/05:30am 3.4 2.0 3.3 99 0.0 CALM 0 0 0 0 - - 0.0
20/05:00am 2.6 1.0 2.5 99 0.0 CALM 0 0 0 0 - - 0.0
20/04:30am 3.1 1.6 3.0 99 0.0 CALM 0 0 0 0 - - 0.0
20/04:13am 3.1 1.6 3.0 99 0.0 CALM 0 0 0 0 - - 0.0
20/04:00am 3.1 1.6 3.0 99 0.0 CALM 0 0 0 0 - - 0.0
20/03:32am 3.3 1.8 3.0 98 0.1 CALM 0 0 0 0 - - 0.0
20/03:30am 3.2 1.7 2.9 98 0.1 CALM 0 0 0 0 - - 0.0
20/03:00am 3.6 2.2 3.3 98 0.1 CALM 0 0 0 0 - - 0.0
20/02:30am 3.7 2.3 3.3 97 0.2 CALM 0 0 0 0 - - 0.0
20/02:00am 4.1 2.7 3.7 97 0.2 CALM 0 0 0 0 - - 0.0
20/01:30am 4.2 2.8 3.6 96 0.2 CALM 0 0 0 0 - - 0.0
20/01:29am 4.3 2.9 3.7 96 0.2 CALM 0 0 0 0 - - 0.0
20/01:16am 4.4 3.0 3.7 95 0.3 CALM 0 0 0 0 - - 0.0
20/01:00am 4.7 3.4 4.0 95 0.3 CALM 0 0 0 0 - - 0.0
20/12:30am 4.9 3.6 4.2 95 0.3 CALM 0 0 0 0 - - 0.0
20/12:00am 5.2 3.9 4.3 94 0.4 CALM 0 0 0 0 - - 0.0
 
Date/Time
EST
Temp
°C
App
Temp
°C
Dew
Point
°C
Rel
Hum
%
Delta-T
°C
Wind Press
QNH
hPa
Press
MSL
hPa
Rain since
9am
mm
Dir  Spd
km/h
Gust
km/h
Spd
kts
Gust
kts
19/11:30pm 5.4 4.2 4.5 94 0.4 CALM 0 0 0 0 - - 0.0
19/11:00pm 5.9 4.8 5.0 94 0.4 CALM 0 0 0 0 - - 0.0
19/10:30pm 6.2 5.1 5.0 92 0.5 CALM 0 0 0 0 - - 0.0
19/10:00pm 6.6 5.5 5.2 91 0.6 CALM 0 0 0 0 - - 0.0
19/09:30pm 6.5 5.3 4.5 87 0.9 CALM 0 0 0 0 - - 0.0
19/09:00pm 6.9 5.7 4.6 85 1.0 CALM 0 0 0 0 - - 0.0
19/08:30pm 7.4 6.3 4.9 84 1.1 CALM 0 0 0 0 - - 0.0
19/08:00pm 7.5 6.3 4.8 83 1.2 CALM 0 0 0 0 - - 0.0
19/07:30pm 8.5 7.4 5.1 79 1.5 CALM 0 0 0 0 - - 0.0
19/07:00pm 9.0 8.0 5.6 79 1.5 CALM 0 0 0 0 - - 0.0
19/06:30pm 9.9 8.6 4.1 67 2.6 CALM 0 0 0 0 - - 0.0
19/06:00pm 10.9 9.5 3.7 61 3.2 CALM 0 0 0 0 - - 0.0
19/05:30pm 12.6 10.4 3.3 53 4.1 E 4 7 2 4 - - 0.0
19/05:00pm 15.6 12.3 2.4 41 5.9 E 9 13 5 7 - - 0.0
19/04:30pm 17.1 14.3 1.9 36 6.8 S 6 15 3 8 - - 0.0
19/04:00pm 19.2 16.0 3.0 34 7.5 WNW 9 19 5 10 - - 0.0
19/03:30pm 20.1 17.8 2.9 32 8.1 WSW 4 11 2 6 - - 0.0
19/03:00pm 20.0 17.3 2.8 32 8.0 WNW 6 11 3 6 - - 0.0
19/02:30pm 19.4 16.1 2.7 33 7.7 WSW 9 17 5 9 - - 0.0
19/02:00pm 19.3 16.5 3.1 34 7.6 SW 7 13 4 7 - - 0.0
19/01:30pm 19.2 16.1 3.4 35 7.4 SSW 9 20 5 11 - - 0.0
19/01:00pm 18.6 14.6 2.9 35 7.3 SW 13 19 7 10 - - 0.0
19/12:30pm 18.0 13.4 3.5 38 6.8 WSW 17 24 9 13 - - 0.0
19/12:00pm 17.9 13.7 3.8 39 6.6 WSW 15 28 8 15 - - 0.0
19/11:30am 17.2 12.1 4.2 42 6.1 WSW 20 32 11 17 - - 0.0
19/11:00am 16.3 11.8 4.0 44 5.7 WSW 17 24 9 13 - - 0.0
19/10:30am 14.6 9.9 3.1 46 5.2 WSW 17 30 9 16 - - 0.0
19/10:00am 13.3 8.5 2.5 48 4.7 W 17 26 9 14 - - 0.0
19/09:30am 11.9 7.7 1.5 49 4.4 W 13 24 7 13 - - 0.0
19/09:00am 10.5 6.2 1.1 52 3.9 WNW 13 17 7 9 - - 0.0
19/08:30am 8.9 5.0 1.3 59 3.1 W 11 19 6 10 - - 0.0
19/08:00am 6.9 3.3 0.4 63 2.5 WNW 9 13 5 7 - - 0.0
19/07:30am 5.5 1.9 0.3 69 2.0 WNW 9 13 5 7 - - 0.0
19/07:00am 5.6 1.9 0.2 68 2.1 WNW 9 13 5 7 - - 0.0
19/06:30am 5.9 2.6 0.3 67 2.2 NW 7 15 4 8 - - 0.0
19/06:00am 4.5 1.4 1.5 81 1.2 WNW 7 11 4 6 - - 0.0
19/05:30am 2.9 -0.2 0.3 83 1.0 NW 6 13 3 7 - - 0.0
19/05:00am 2.3 -0.4 0.2 86 0.8 N 4 7 2 4 - - 0.0
19/04:30am 2.1 -0.3 -0.5 83 0.9 N 2 7 1 4 - - 0.0
19/04:00am 2.8 0.8 0.2 83 1.0 CALM 0 0 0 0 - - 0.0
19/03:30am 3.1 0.4 0.0 80 1.2 NNE 4 9 2 5 - - 0.0
19/03:00am 2.7 0.8 0.8 87 0.7 CALM 0 6 0 3 - - 0.0
19/02:30am 2.0 0.1 0.7 91 0.5 CALM 0 0 0 0 - - 0.0
19/02:00am 2.8 1.0 0.9 87 0.7 CALM 0 0 0 0 - - 0.0
19/01:30am 3.0 1.2 1.1 87 0.7 CALM 0 0 0 0 - - 0.0
19/01:00am 3.4 1.2 0.8 83 1.0 NW 2 7 1 4 - - 0.0
19/12:30am 3.9 1.8 1.4 84 1.0 NNW 2 7 1 4 - - 0.0
19/12:00am 4.2 2.5 1.7 84 1.0 CALM 0 0 0 0 - - 0.0
 
Date/Time
EST
Temp
°C
App
Temp
°C
Dew
Point
°C
Rel
Hum
%
Delta-T
°C
Wind Press
QNH
hPa
Press
MSL
hPa
Rain since
9am
mm
Dir  Spd
km/h
Gust
km/h
Spd
kts
Gust
kts
18/11:30pm 5.0 3.2 1.5 78 1.4 CALM 0 0 0 0 - - 0.0
18/11:00pm 5.9 4.2 1.6 74 1.7 CALM 0 0 0 0 - - 0.0

Other formats

Comma delimited format used in spreadsheet applications
http://www.bom.gov.au/fwo/IDN60801/IDN60801.94766.axf

JavaScript Object Notation format (JSON) in row-major order
http://www.bom.gov.au/fwo/IDN60801/IDN60801.94766.json

Data quality

Most of these data are generated automatically and are frequently updated. Quality checks on data are not normally performed. It is possible for incorrect values to appear. Refer to information at About Latest Weather Observations and please check the disclaimer before using these data.